McClurg, Missouri
Current Conditions -  °F | °C
As of 7:46 AM on Sunday 21 Dec 2014 (Local Time) from KBBG Reporting Station
Haze Haze  
Wind Chill: 33°   Ceiling: 500
Heat Index: 39°   Visibility: 3mi
Dew Point: 37°   Wind: 9mph
Humidity: 93%   Direction: 160°SSE
Pressure: 30.14"   Gusts: NA
Location:  36.78°N, 92.77°W
Report Text: KBBG 211346Z 16008KT 3SM BR BKN005 OVC021 04/03 A3014
Loading
Personal Weather Stations






























Interactive Weather Map New forecast layout! Learn more

10-Day Weather Forecast

Advertisements
Track Severe Weather on mobile